Terminal Aerodrome Forecast
Issued by NWS

Home | Current Version | Previous Version | Text Only | Print | Product List | Glossary On
Versions: 1 2 3 4 5 6 7 8 9 10 11 12 13 14 15 16 17 18 19
000
FTUS46 KSEW 271550 AAB
TAFBFI
TAF AMD
KBFI 271550Z 2716/2812 14004KT P6SM VCSH SCT008 OVC017
      TEMPO 2716/2718 4SM -SHRASN BKN008 OVC017
     FM271800 16006KT P6SM -SHRASN BKN020 BKN040
     FM272100 18006KT P6SM VCSH BKN035
     FM280500 15005KT P6SM BKN040=

USA.gov is the U.S. government's official web portal to all federal, state and local government web resources and services.